createdAt,value
2022-12-09T06:31:19.082Z,25.00
2022-12-09T06:33:55.829Z,25.05
2022-12-09T06:36:25.061Z,24.40
2022-12-09T06:38:52.725Z,26.25
2022-12-09T06:41:20.092Z,18.35
2022-12-09T06:43:47.713Z,20.42
2022-12-09T06:46:18.719Z,19.95
2022-12-09T06:48:46.999Z,15.18
2022-12-09T06:51:15.570Z,15.38
2022-12-09T06:53:43.593Z,22.77
2022-12-09T06:56:13.542Z,20.20
2022-12-09T06:58:43.081Z,20.42
2022-12-09T07:01:16.482Z,19.58
2022-12-09T07:03:46.752Z,17.58
2022-12-09T07:09:04.785Z,20.88
2022-12-09T07:11:33.683Z,20.35
2022-12-09T07:14:02.928Z,18.92
2022-12-09T07:16:31.884Z,21.48
2022-12-09T07:19:00.240Z,23.95
2022-12-09T07:21:30.997Z,18.60
2022-12-09T07:24:01.425Z,17.52
2022-12-09T07:26:33.701Z,18.17
2022-12-09T07:29:03.823Z,29.20
2022-12-09T07:31:32.942Z,27.88
2022-12-09T07:34:02.452Z,29.95
2022-12-09T07:36:32.924Z,19.50
2022-12-09T07:39:04.672Z,24.27
2022-12-09T07:41:32.433Z,19.07
2022-12-09T07:44:00.682Z,18.92
2022-12-09T07:46:30.816Z,18.15
2022-12-09T07:48:58.672Z,18.38
2022-12-09T07:51:29.622Z,23.20
2022-12-09T07:53:57.902Z,19.15
2022-12-09T07:56:26.161Z,22.30
2022-12-09T07:58:54.595Z,19.65
2022-12-09T08:01:25.319Z,18.45
2022-12-09T08:03:53.414Z,21.85
2022-12-09T08:06:27.232Z,20.85
2022-12-09T08:08:59.820Z,20.13
2022-12-09T08:11:30.175Z,21.48
2022-12-09T08:14:04.362Z,19.38
2022-12-09T08:16:35.143Z,24.75
2022-12-09T08:19:03.494Z,16.70
2022-12-09T08:21:32.929Z,16.27
2022-12-09T08:24:05.931Z,17.38
2022-12-09T08:26:35.229Z,22.02
2022-12-09T08:29:07.383Z,23.35
2022-12-09T08:31:40.654Z,19.35
2022-12-09T08:34:09.997Z,18.13
2022-12-09T08:36:39.255Z,19.60
2022-12-09T08:39:07.151Z,16.63
2022-12-09T08:41:38.177Z,18.60
2022-12-09T08:44:17.438Z,17.80
2022-12-09T08:46:48.399Z,21.48
2022-12-09T08:49:19.050Z,19.40
2022-12-09T08:51:49.199Z,21.10
2022-12-09T08:54:22.414Z,16.92
2022-12-09T08:56:56.249Z,16.10
2022-12-09T08:59:24.531Z,17.48
2022-12-09T09:01:52.585Z,20.15
2022-12-09T09:04:22.924Z,21.83
2022-12-09T09:06:52.479Z,18.60
2022-12-09T09:09:22.196Z,18.67
2022-12-09T09:11:50.328Z,15.88
2022-12-09T09:14:18.279Z,19.77
2022-12-09T09:16:46.460Z,19.08
2022-12-09T09:19:17.627Z,17.13
2022-12-09T09:21:45.772Z,18.95
2022-12-09T09:24:16.914Z,18.35
2022-12-09T09:26:53.159Z,18.45
2022-12-09T09:29:23.027Z,16.23
2022-12-09T09:31:56.216Z,17.85
2022-12-09T09:34:28.053Z,16.55
2022-12-09T09:36:57.633Z,16.90
2022-12-09T09:39:25.910Z,12.40
2022-12-09T09:44:54.221Z,17.52
2022-12-09T09:47:38.230Z,20.73
2022-12-09T09:52:52.588Z,16.95
2022-12-09T09:55:31.100Z,19.05
2022-12-09T09:58:16.326Z,16.55
2022-12-09T10:01:02.484Z,18.23
2022-12-09T10:03:58.922Z,19.02
2022-12-09T10:06:45.608Z,14.95
2022-12-09T10:09:31.159Z,14.52
2022-12-09T10:12:09.702Z,17.00
2022-12-09T10:15:15.013Z,23.60
2022-12-09T10:17:50.944Z,18.15
2022-12-09T10:20:31.346Z,21.80
2022-12-09T10:23:04.094Z,20.02
2022-12-09T10:28:24.707Z,23.88
2022-12-09T10:30:54.691Z,20.35
2022-12-09T10:33:29.565Z,18.80
2022-12-09T10:35:57.631Z,25.50
2022-12-09T10:38:30.310Z,17.48
2022-12-09T10:41:50.729Z,19.48
2022-12-09T10:44:23.148Z,18.30
2022-12-09T10:47:23.934Z,17.52
2022-12-09T10:49:54.387Z,16.77
2022-12-09T10:52:25.764Z,22.75
2022-12-09T10:54:54.408Z,20.00
2022-12-09T10:57:27.437Z,18.58
2022-12-09T11:00:02.021Z,24.60
2022-12-09T11:02:32.851Z,20.73
2022-12-09T11:05:28.802Z,22.17
2022-12-09T11:07:58.627Z,18.90
2022-12-09T11:10:29.618Z,20.88
2022-12-09T11:13:06.554Z,19.13
2022-12-09T11:15:59.487Z,20.70
2022-12-09T11:18:33.041Z,19.55
2022-12-09T11:21:03.993Z,20.67
2022-12-09T11:23:31.776Z,19.08
2022-12-09T11:26:04.696Z,23.65
2022-12-09T11:33:58.117Z,22.15
2022-12-09T11:36:32.634Z,29.50
2022-12-09T11:39:29.084Z,20.65
2022-12-09T11:42:19.849Z,25.15
2022-12-09T11:45:06.631Z,21.98
2022-12-09T11:48:13.895Z,24.85
2022-12-09T11:50:32.380Z,23.38
2022-12-09T11:53:27.043Z,22.65
2022-12-09T11:56:00.810Z,21.70
2022-12-09T11:58:39.109Z,21.25
2022-12-09T12:01:18.017Z,28.35
2022-12-09T12:03:52.015Z,28.83
2022-12-09T12:06:25.158Z,22.98
2022-12-09T12:09:18.428Z,23.52
2022-12-09T12:14:43.171Z,22.08
2022-12-09T12:17:33.952Z,32.72
2022-12-09T12:20:02.492Z,22.27
2022-12-09T12:22:57.821Z,27.30
2022-12-09T12:28:40.801Z,20.08
2022-12-09T12:31:37.095Z,27.65
2022-12-09T12:34:37.293Z,28.52
2022-12-09T12:37:30.409Z,24.73
2022-12-09T12:40:37.455Z,23.55
2022-12-09T12:43:41.362Z,27.08
2022-12-09T12:46:41.519Z,23.45
2022-12-09T12:52:21.089Z,21.42
2022-12-09T12:55:24.627Z,24.50
2022-12-09T12:58:06.134Z,33.58
2022-12-09T13:00:45.336Z,23.48
2022-12-09T13:06:14.222Z,28.20
2022-12-09T13:08:48.646Z,27.48
2022-12-09T13:11:22.418Z,24.70
2022-12-09T13:13:55.825Z,30.67
2022-12-09T13:16:36.216Z,30.92
2022-12-09T13:19:26.615Z,25.95
2022-12-09T13:21:54.292Z,29.83
2022-12-09T13:27:13.248Z,25.83
2022-12-09T13:29:52.150Z,35.17
2022-12-09T13:32:37.358Z,33.63
2022-12-09T13:35:14.039Z,29.20
2022-12-09T13:45:47.779Z,28.15
2022-12-09T13:50:59.684Z,33.08
2022-12-09T13:53:40.116Z,34.03
2022-12-09T13:56:24.569Z,26.77
2022-12-09T13:59:15.902Z,32.80
2022-12-09T14:01:52.003Z,33.42
2022-12-09T14:04:30.957Z,25.98
2022-12-09T14:07:28.311Z,30.67
2022-12-09T14:09:57.645Z,33.95
2022-12-09T14:18:04.685Z,30.00
2022-12-09T14:20:36.647Z,27.42
2022-12-09T14:23:13.331Z,32.67
2022-12-09T14:25:56.804Z,34.90
2022-12-09T14:28:36.868Z,28.65
2022-12-09T14:31:08.616Z,32.03
2022-12-09T14:33:42.606Z,25.08
2022-12-09T14:36:26.895Z,31.15
2022-12-09T14:39:24.231Z,31.73
2022-12-09T14:42:01.784Z,29.55
2022-12-09T14:44:48.447Z,27.70
2022-12-09T14:47:33.507Z,27.10
2022-12-09T14:50:09.129Z,29.27
2022-12-09T14:52:36.798Z,31.15
2022-12-09T14:55:09.179Z,35.38
2022-12-09T14:57:42.392Z,32.15
2022-12-09T15:00:39.165Z,35.10
2022-12-09T15:03:39.505Z,35.50
2022-12-09T15:06:12.242Z,32.35
2022-12-09T15:08:41.126Z,31.50
2022-12-09T15:11:21.470Z,31.25
2022-12-09T15:13:51.791Z,28.05
2022-12-09T15:16:22.602Z,32.60
2022-12-09T15:18:51.502Z,34.47
2022-12-09T15:21:27.238Z,31.27
2022-12-09T15:23:54.894Z,38.95
2022-12-09T15:26:33.274Z,28.83
2022-12-09T15:29:01.289Z,35.95
2022-12-09T15:31:31.019Z,31.30
2022-12-09T15:34:07.824Z,29.65
2022-12-09T15:36:39.709Z,33.35
2022-12-09T15:39:11.737Z,32.43
2022-12-09T15:42:03.300Z,36.20
2022-12-09T15:44:49.812Z,37.17
2022-12-09T15:50:22.744Z,30.67
2022-12-09T15:55:51.280Z,26.17
2022-12-09T15:58:23.161Z,40.40
2022-12-09T16:00:52.093Z,39.53
2022-12-09T16:03:24.127Z,26.17
2022-12-09T16:05:55.270Z,29.75
2022-12-09T16:08:23.487Z,37.33
2022-12-09T16:10:53.209Z,34.53
2022-12-09T16:13:21.334Z,37.55
2022-12-09T16:15:52.522Z,29.63
2022-12-09T16:18:24.911Z,33.38
2022-12-09T16:21:18.000Z,37.72
2022-12-09T16:23:48.733Z,30.65
2022-12-09T16:26:27.084Z,29.98
2022-12-09T16:28:58.586Z,36.60
2022-12-09T16:31:26.103Z,38.50
2022-12-09T16:33:54.140Z,31.38
2022-12-09T16:36:26.461Z,37.92
2022-12-09T16:41:58.823Z,34.88
2022-12-09T16:44:33.029Z,31.23
2022-12-09T16:47:16.122Z,36.45
2022-12-09T16:49:47.032Z,30.65
2022-12-09T16:52:20.500Z,38.88
2022-12-09T16:54:49.439Z,28.27
2022-12-09T16:57:18.606Z,35.50
2022-12-09T16:59:46.574Z,34.15
